createdAt,value
2017-06-04T00:00:14.804Z,34.95
2017-06-04T00:02:41.486Z,36.28
2017-06-04T00:05:08.168Z,35.38
2017-06-04T00:07:34.872Z,36.95
2017-06-04T00:10:01.555Z,37.63
2017-06-04T00:12:28.260Z,36.88
2017-06-04T00:14:54.933Z,36.00
2017-06-04T00:17:21.599Z,35.28
2017-06-04T00:19:48.269Z,37.70
2017-06-04T00:22:14.940Z,37.00
2017-06-04T00:24:41.617Z,37.25
2017-06-04T00:27:08.291Z,38.70
2017-06-04T00:29:34.985Z,39.28
2017-06-04T00:32:01.656Z,41.63
2017-06-04T00:34:28.356Z,43.20
2017-06-04T00:36:55.029Z,42.92
2017-06-04T00:39:21.704Z,43.00
2017-06-04T00:41:48.384Z,45.20
2017-06-04T00:44:15.062Z,43.40
2017-06-04T00:46:41.731Z,49.03
2017-06-04T00:49:08.412Z,46.00
2017-06-04T00:51:35.111Z,49.95
2017-06-04T00:54:01.772Z,48.13
2017-06-04T00:56:28.503Z,50.70
2017-06-04T00:58:55.176Z,52.65
2017-06-04T01:01:21.849Z,47.62
2017-06-04T01:03:48.517Z,51.30
2017-06-04T01:06:15.188Z,53.92
2017-06-04T01:08:41.864Z,51.63
2017-06-04T01:11:08.539Z,52.58
2017-06-04T01:13:35.235Z,54.78
2017-06-04T01:16:01.908Z,55.45
2017-06-04T01:18:28.636Z,54.78
2017-06-04T01:20:55.312Z,55.10
2017-06-04T01:23:21.980Z,53.97
2017-06-04T01:25:48.661Z,51.85
2017-06-04T01:28:15.328Z,55.03
2017-06-04T01:30:42.464Z,59.38
2017-06-04T01:33:09.144Z,55.25
2017-06-04T01:35:35.839Z,54.13
2017-06-04T01:38:02.508Z,58.85
2017-06-04T01:40:29.232Z,58.03
2017-06-04T01:42:55.903Z,54.95
2017-06-04T01:45:22.568Z,62.00
2017-06-04T01:47:49.236Z,60.05
2017-06-04T01:50:15.908Z,58.47
2017-06-04T01:52:42.719Z,62.50
2017-06-04T01:55:09.392Z,63.60
2017-06-04T01:57:36.056Z,65.22
2017-06-04T02:00:02.749Z,64.03
2017-06-04T02:02:29.433Z,68.20
2017-06-04T02:04:56.135Z,68.25
2017-06-04T02:07:22.804Z,68.43
2017-06-04T02:09:49.510Z,70.12
2017-06-04T02:12:16.184Z,65.07
2017-06-04T02:14:42.852Z,64.32
2017-06-04T02:17:09.521Z,62.65
2017-06-04T02:19:36.199Z,62.33
2017-06-04T02:22:02.875Z,56.88
2017-06-04T02:24:29.555Z,52.25
2017-06-04T02:26:56.256Z,53.28
2017-06-04T02:29:22.924Z,53.00
2017-06-04T02:31:49.592Z,53.78
2017-06-04T02:34:16.267Z,48.22
2017-06-04T02:36:42.941Z,52.90
2017-06-04T02:39:09.616Z,55.08
2017-06-04T02:41:36.295Z,56.20
2017-06-04T02:44:03.028Z,53.40
2017-06-04T02:46:29.720Z,59.60
2017-06-04T02:48:56.391Z,61.47
2017-06-04T02:51:23.060Z,60.42
2017-06-04T02:53:49.816Z,58.45
2017-06-04T02:56:16.512Z,55.50
2017-06-04T02:58:43.190Z,56.28
2017-06-04T03:01:09.901Z,59.22
2017-06-04T03:03:36.572Z,58.67
2017-06-04T03:06:03.245Z,68.78
2017-06-04T03:08:29.949Z,63.45
2017-06-04T03:10:56.635Z,65.10
2017-06-04T03:13:23.336Z,72.97
2017-06-04T03:15:50.008Z,70.47
2017-06-04T03:18:16.740Z,77.03
2017-06-04T03:20:43.716Z,67.32
2017-06-04T03:23:10.392Z,69.57
2017-06-04T03:25:37.060Z,70.37
2017-06-04T03:28:03.735Z,58.50
2017-06-04T03:30:30.434Z,52.20
2017-06-04T03:32:57.116Z,46.63
2017-06-04T03:35:23.844Z,50.80
2017-06-04T03:37:50.516Z,45.15
2017-06-04T03:40:17.200Z,49.17
2017-06-04T03:42:43.876Z,45.15
2017-06-04T03:45:10.554Z,43.63
2017-06-04T03:47:37.256Z,48.28
2017-06-04T03:50:03.940Z,47.47
2017-06-04T03:52:30.640Z,48.38
2017-06-04T03:54:57.327Z,43.50
2017-06-04T03:57:24.056Z,51.63
2017-06-04T03:59:50.732Z,46.13
2017-06-04T04:02:17.404Z,46.05
2017-06-04T04:04:44.084Z,46.95
2017-06-04T04:07:10.768Z,47.92
2017-06-04T04:09:37.472Z,49.72
2017-06-04T04:12:04.141Z,50.20
2017-06-04T04:14:30.845Z,44.40
2017-06-04T04:16:57.519Z,45.42
2017-06-04T04:19:24.229Z,47.25
2017-06-04T04:21:50.896Z,48.33
2017-06-04T04:24:17.568Z,50.05
2017-06-04T04:26:44.240Z,49.80
2017-06-04T04:29:10.911Z,50.75
2017-06-04T04:31:37.607Z,49.58
2017-06-04T04:34:04.281Z,44.33
2017-06-04T04:36:30.998Z,49.05
2017-06-04T04:38:57.673Z,48.67
2017-06-04T04:41:24.397Z,49.38
2017-06-04T04:43:51.071Z,43.70
2017-06-04T04:46:17.757Z,45.80
2017-06-04T04:48:44.432Z,48.30
2017-06-04T04:51:11.103Z,53.13
2017-06-04T04:53:37.803Z,49.55
2017-06-04T04:56:04.480Z,47.92
2017-06-04T04:58:31.186Z,49.88
2017-06-04T05:00:57.865Z,51.50
2017-06-04T05:03:24.587Z,49.63
2017-06-04T05:05:51.264Z,57.38
2017-06-04T05:08:17.950Z,53.40
2017-06-04T05:10:44.623Z,55.45
2017-06-04T05:13:11.336Z,56.60
2017-06-04T05:15:38.033Z,54.00
2017-06-04T05:18:04.724Z,53.80
2017-06-04T05:20:31.424Z,58.25
2017-06-04T05:22:58.106Z,54.17
2017-06-04T05:25:30.763Z,54.15
2017-06-04T05:27:57.448Z,57.10
2017-06-04T05:30:24.128Z,59.13
2017-06-04T05:32:50.800Z,56.80
2017-06-04T05:35:17.472Z,59.20
2017-06-04T05:37:44.172Z,61.30
2017-06-04T05:40:10.844Z,58.38
2017-06-04T05:42:37.535Z,58.87
2017-06-04T05:45:04.204Z,59.10
2017-06-04T05:47:30.942Z,51.67
2017-06-04T05:49:57.620Z,53.75
2017-06-04T05:52:24.288Z,48.45
2017-06-04T05:54:50.968Z,43.20
2017-06-04T05:57:17.648Z,45.42
2017-06-04T05:59:44.363Z,44.65
2017-06-04T06:02:11.031Z,47.22
2017-06-04T06:04:37.747Z,45.53
2017-06-04T06:07:04.423Z,43.90
2017-06-04T06:09:31.105Z,44.83
2017-06-04T06:11:57.776Z,44.08
2017-06-04T06:14:24.443Z,43.85
2017-06-04T06:16:51.115Z,38.40
2017-06-04T06:19:17.796Z,35.13
2017-06-04T06:21:44.492Z,34.47
2017-06-04T06:24:11.172Z,33.05
2017-06-04T06:26:37.880Z,30.83
2017-06-04T06:29:04.557Z,30.45
2017-06-04T06:31:31.231Z,30.00
2017-06-04T06:33:57.908Z,29.87
2017-06-04T06:36:24.584Z,30.55
2017-06-04T06:38:51.260Z,31.37
2017-06-04T06:41:17.938Z,29.05
2017-06-04T06:43:44.636Z,30.65
2017-06-04T06:46:11.324Z,27.98
2017-06-04T06:48:38.000Z,25.62
2017-06-04T06:51:04.672Z,26.55
2017-06-04T06:53:31.356Z,25.65
2017-06-04T06:55:58.040Z,23.33
2017-06-04T06:58:24.716Z,21.90
2017-06-04T07:00:51.447Z,20.83
2017-06-04T07:03:18.126Z,23.08
2017-06-04T07:05:45.129Z,21.12
2017-06-04T07:08:11.816Z,21.42
2017-06-04T07:10:38.492Z,22.67
2017-06-04T07:13:05.180Z,22.75
2017-06-04T07:15:31.852Z,25.20
2017-06-04T07:17:58.528Z,26.65
2017-06-04T07:20:25.199Z,29.27
2017-06-04T07:22:51.907Z,30.10
2017-06-04T07:25:18.584Z,31.80
2017-06-04T07:27:45.252Z,31.87
2017-06-04T07:30:11.932Z,31.30
2017-06-04T07:32:38.611Z,28.65
2017-06-04T07:35:05.281Z,28.05
2017-06-04T07:37:31.965Z,27.67
2017-06-04T07:39:58.639Z,28.10
2017-06-04T07:42:25.312Z,27.83
2017-06-04T07:44:52.013Z,30.02
2017-06-04T07:47:18.783Z,27.87
2017-06-04T07:49:45.455Z,26.80
2017-06-04T07:52:12.130Z,27.33
2017-06-04T07:54:38.804Z,28.30
2017-06-04T07:57:05.477Z,25.15
2017-06-04T07:59:32.143Z,26.70
2017-06-04T08:01:58.840Z,27.02
2017-06-04T08:04:26.303Z,27.58
2017-06-04T08:06:52.977Z,26.50
2017-06-04T08:09:19.652Z,26.52
2017-06-04T08:11:46.320Z,27.73
2017-06-04T08:14:13.001Z,26.50
2017-06-04T08:16:39.673Z,26.00
2017-06-04T08:19:06.409Z,25.08
2017-06-04T08:21:33.090Z,25.42
2017-06-04T08:23:59.767Z,24.90
2017-06-04T08:26:26.440Z,26.50
2017-06-04T08:28:53.113Z,25.95
2017-06-04T08:31:19.791Z,24.77
2017-06-04T08:33:46.488Z,24.77
2017-06-04T08:36:13.192Z,22.23
2017-06-04T08:38:39.868Z,21.00
2017-06-04T08:41:06.539Z,16.80
2017-06-04T08:43:33.239Z,14.18
2017-06-04T08:45:59.920Z,13.38
2017-06-04T08:48:26.652Z,13.32
2017-06-04T08:50:53.332Z,13.52
2017-06-04T08:53:20.020Z,13.10
2017-06-04T08:55:46.693Z,11.90
2017-06-04T08:58:13.365Z,10.60
2017-06-04T09:00:40.064Z,10.43
2017-06-04T09:03:06.742Z,10.40
2017-06-04T09:05:33.451Z,10.87
2017-06-04T09:08:00.121Z,9.90
2017-06-04T09:10:26.819Z,8.60
2017-06-04T09:12:53.479Z,8.60
2017-06-04T09:15:20.152Z,8.23
2017-06-04T09:17:46.840Z,8.27
2017-06-04T09:20:13.500Z,8.50
2017-06-04T09:22:40.192Z,8.23
2017-06-04T09:25:06.851Z,7.70
2017-06-04T09:27:33.516Z,7.40
2017-06-04T09:30:00.201Z,7.30
2017-06-04T09:32:26.860Z,6.93
2017-06-04T09:34:53.549Z,6.80
2017-06-04T09:37:20.208Z,7.40
2017-06-04T09:39:46.924Z,6.53
2017-06-04T09:42:13.596Z,6.53
2017-06-04T09:44:40.267Z,6.30
2017-06-04T09:47:06.937Z,7.07
2017-06-04T09:49:33.624Z,5.97
2017-06-04T09:52:00.293Z,6.03
2017-06-04T09:54:26.961Z,6.70
2017-06-04T09:56:53.643Z,7.53
2017-06-04T09:59:20.309Z,7.10
2017-06-04T10:01:47.036Z,7.13
2017-06-04T10:04:13.699Z,7.07
2017-06-04T10:06:40.359Z,7.03
2017-06-04T10:09:07.021Z,6.37
2017-06-04T10:11:33.685Z,7.63
2017-06-04T10:14:00.399Z,6.80
2017-06-04T10:16:27.064Z,6.20
2017-06-04T10:18:53.735Z,6.70
2017-06-04T10:21:20.400Z,6.97
2017-06-04T10:23:47.068Z,6.10
2017-06-04T10:26:13.760Z,5.93
2017-06-04T10:28:40.424Z,5.90
2017-06-04T10:31:07.124Z,5.80
2017-06-04T10:33:33.793Z,6.30
2017-06-04T10:36:00.458Z,6.00
2017-06-04T10:38:27.128Z,5.13
2017-06-04T10:40:53.799Z,5.80
2017-06-04T10:43:20.531Z,5.53
2017-06-04T10:45:47.198Z,5.40
2017-06-04T10:48:13.868Z,5.47
2017-06-04T10:50:40.535Z,5.00
2017-06-04T10:53:07.203Z,5.47
2017-06-04T10:55:33.868Z,5.17
2017-06-04T10:58:00.528Z,5.00
2017-06-04T11:00:27.216Z,4.93
2017-06-04T11:02:53.886Z,5.50
2017-06-04T11:05:20.588Z,5.97
2017-06-04T11:07:47.263Z,5.00
2017-06-04T11:10:13.928Z,5.67
2017-06-04T11:12:40.593Z,5.00
2017-06-04T11:15:07.255Z,5.33
2017-06-04T11:17:33.921Z,5.00
2017-06-04T11:20:00.584Z,5.00
2017-06-04T11:22:27.275Z,4.87
2017-06-04T11:24:53.940Z,4.97
2017-06-04T11:27:20.653Z,4.50
2017-06-04T11:29:47.323Z,4.20
2017-06-04T11:32:13.988Z,4.30
2017-06-04T11:34:40.656Z,4.17
2017-06-04T11:37:07.323Z,5.27
2017-06-04T11:39:33.983Z,4.17
2017-06-04T11:42:00.658Z,4.50
2017-06-04T11:44:27.377Z,4.20
2017-06-04T11:46:54.048Z,4.80
2017-06-04T11:49:20.768Z,5.40
2017-06-04T11:51:47.427Z,4.60
2017-06-04T11:54:14.087Z,3.90
2017-06-04T11:56:40.774Z,4.53
2017-06-04T11:59:07.440Z,4.03
2017-06-04T12:01:34.107Z,4.00
2017-06-04T12:04:00.774Z,3.77
2017-06-04T12:06:27.463Z,4.20
2017-06-04T12:08:54.135Z,3.97
2017-06-04T12:11:20.865Z,4.20
2017-06-04T12:13:47.532Z,4.70
2017-06-04T12:16:14.200Z,4.13
2017-06-04T12:18:40.864Z,3.90
2017-06-04T12:21:07.527Z,3.50
2017-06-04T12:23:34.200Z,4.30
2017-06-04T12:26:00.880Z,3.97
2017-06-04T12:28:27.552Z,4.40
2017-06-04T12:30:54.242Z,4.20
2017-06-04T12:33:20.907Z,3.57
2017-06-04T12:35:47.582Z,3.70
2017-06-04T12:38:14.244Z,3.50
2017-06-04T12:40:40.906Z,4.00
2017-06-04T12:43:07.567Z,3.90
2017-06-04T12:45:34.232Z,4.30
2017-06-04T12:48:00.927Z,4.20
2017-06-04T12:50:27.604Z,4.33
2017-06-04T12:52:54.277Z,4.97
2017-06-04T12:55:20.964Z,4.10
2017-06-04T12:57:47.624Z,4.80
2017-06-04T13:00:14.312Z,4.40
2017-06-04T13:02:40.975Z,4.70
2017-06-04T13:05:07.668Z,4.00
2017-06-04T13:07:34.432Z,3.97
2017-06-04T13:10:01.096Z,4.13
2017-06-04T13:12:27.761Z,4.60
2017-06-04T13:14:54.428Z,3.93
2017-06-04T13:17:21.095Z,4.17
2017-06-04T13:19:47.757Z,4.30
2017-06-04T13:22:14.460Z,4.27
2017-06-04T13:24:41.139Z,3.80
2017-06-04T13:27:07.804Z,4.23
2017-06-04T13:29:34.464Z,4.87
2017-06-04T13:32:01.131Z,4.27
2017-06-04T13:34:27.824Z,4.20
2017-06-04T13:36:54.484Z,4.00
2017-06-04T13:39:21.195Z,4.80
2017-06-04T13:41:47.855Z,4.00
2017-06-04T13:44:14.562Z,4.20
2017-06-04T13:46:41.223Z,3.60
2017-06-04T13:49:07.895Z,4.10
2017-06-04T13:51:34.572Z,3.63
2017-06-04T13:54:01.237Z,3.90
2017-06-04T13:56:27.949Z,4.17
2017-06-04T13:58:54.631Z,3.83
2017-06-04T14:01:21.296Z,4.07
2017-06-04T14:03:47.959Z,3.53
2017-06-04T14:06:14.621Z,4.23
2017-06-04T14:08:41.285Z,3.80
2017-06-04T14:11:07.947Z,3.80
2017-06-04T14:13:34.638Z,4.10
2017-06-04T14:16:01.322Z,3.47
2017-06-04T14:18:27.984Z,3.73
2017-06-04T14:20:54.648Z,3.63
2017-06-04T14:23:21.330Z,3.77
2017-06-04T14:25:48.010Z,4.03
2017-06-04T14:28:14.676Z,3.50
2017-06-04T14:30:41.355Z,3.93
2017-06-04T14:33:08.022Z,3.93
2017-06-04T14:35:34.716Z,3.80
2017-06-04T14:38:01.384Z,4.00
2017-06-04T14:40:28.099Z,3.63
2017-06-04T14:42:54.761Z,3.57
2017-06-04T14:45:21.423Z,3.70
2017-06-04T14:47:48.087Z,3.70
2017-06-04T14:50:14.757Z,3.23
2017-06-04T14:52:41.522Z,4.40
2017-06-04T14:55:08.191Z,3.90
2017-06-04T14:57:34.877Z,4.23
2017-06-04T15:00:02.512Z,4.13
2017-06-04T15:02:29.208Z,3.67
2017-06-04T15:04:55.872Z,4.43
2017-06-04T15:07:22.563Z,3.50
2017-06-04T15:09:49.224Z,3.90
2017-06-04T15:12:15.880Z,3.57
2017-06-04T15:14:42.548Z,3.70
2017-06-04T15:17:09.207Z,4.00
2017-06-04T15:19:35.871Z,3.47
2017-06-04T15:22:02.532Z,3.67
2017-06-04T15:24:29.200Z,3.77
2017-06-04T15:26:55.938Z,3.77
2017-06-04T15:29:22.627Z,3.37
2017-06-04T15:31:49.300Z,3.90
2017-06-04T15:34:15.992Z,3.17
2017-06-04T15:36:42.664Z,3.43
2017-06-04T15:39:09.331Z,3.60
2017-06-04T15:41:36.028Z,3.10
2017-06-04T15:44:02.697Z,3.50
2017-06-04T15:46:29.367Z,3.40
2017-06-04T15:48:56.028Z,3.20
2017-06-04T15:51:22.742Z,3.27
2017-06-04T15:53:49.411Z,3.37
2017-06-04T15:56:16.076Z,3.30
2017-06-04T15:58:42.736Z,3.77
2017-06-04T16:01:09.397Z,3.33
2017-06-04T16:03:36.064Z,3.80
2017-06-04T16:06:02.734Z,3.03
2017-06-04T16:08:29.397Z,3.60
2017-06-04T16:10:56.064Z,4.17
2017-06-04T16:13:22.724Z,3.90
2017-06-04T16:15:49.392Z,4.00
2017-06-04T16:18:16.060Z,3.87
2017-06-04T16:20:42.731Z,4.00
2017-06-04T16:23:09.401Z,4.47
2017-06-04T16:25:36.414Z,4.23
2017-06-04T16:28:03.084Z,5.47
2017-06-04T16:30:29.797Z,5.53
2017-06-04T16:32:56.464Z,5.80
2017-06-04T16:35:23.124Z,5.67
2017-06-04T16:37:49.807Z,6.20
2017-06-04T16:40:16.472Z,5.10
2017-06-04T16:42:43.172Z,9.70
2017-06-04T16:45:09.838Z,5.27
2017-06-04T16:47:36.525Z,7.57
2017-06-04T16:50:03.184Z,5.13
2017-06-04T16:52:29.875Z,8.10
2017-06-04T16:54:56.548Z,4.57
2017-06-04T16:57:23.247Z,4.27
2017-06-04T16:59:49.911Z,4.17
2017-06-04T17:02:16.580Z,4.40
2017-06-04T17:04:43.253Z,5.07
2017-06-04T17:07:09.924Z,4.73
2017-06-04T17:09:36.628Z,4.40
2017-06-04T17:12:03.295Z,5.27
2017-06-04T17:14:29.989Z,4.60
2017-06-04T17:16:56.668Z,3.57
2017-06-04T17:19:23.376Z,4.67
2017-06-04T17:21:50.036Z,4.50
2017-06-04T17:24:16.705Z,4.00
2017-06-04T17:26:43.380Z,5.30
2017-06-04T17:29:10.059Z,4.57
2017-06-04T17:31:36.764Z,4.62
2017-06-04T17:34:03.440Z,4.22
2017-06-04T17:36:30.160Z,4.30
2017-06-04T17:38:56.831Z,4.30
2017-06-04T17:41:23.503Z,4.80
2017-06-04T17:43:50.183Z,4.82
2017-06-04T17:46:16.865Z,4.47
2017-06-04T17:48:43.545Z,4.35
2017-06-04T17:51:10.235Z,4.10
2017-06-04T17:53:36.936Z,4.40
2017-06-04T17:56:03.609Z,5.10
2017-06-04T17:58:30.308Z,4.10
2017-06-04T18:00:56.983Z,4.30
2017-06-04T18:03:23.680Z,4.03
2017-06-04T18:05:50.353Z,4.30
2017-06-04T18:08:17.029Z,4.10
2017-06-04T18:10:43.735Z,4.90
2017-06-04T18:13:10.412Z,4.50
2017-06-04T18:15:37.090Z,4.10
2017-06-04T18:18:03.767Z,4.03
2017-06-04T18:20:30.435Z,4.10
2017-06-04T18:22:57.132Z,3.62
2017-06-04T18:25:23.808Z,3.97
2017-06-04T18:27:50.504Z,4.12
2017-06-04T18:30:17.172Z,4.28
2017-06-04T18:32:43.893Z,4.05
2017-06-04T18:35:10.561Z,3.78
2017-06-04T18:37:37.229Z,5.07
2017-06-04T18:40:03.905Z,4.18
2017-06-04T18:42:30.572Z,3.80
2017-06-04T18:44:57.269Z,3.90
2017-06-04T18:47:23.952Z,4.15
2017-06-04T18:49:50.620Z,4.15
2017-06-04T18:52:17.287Z,4.93
2017-06-04T18:54:43.984Z,5.03
2017-06-04T18:57:10.653Z,4.82
2017-06-04T18:59:37.318Z,4.70
2017-06-04T19:02:03.980Z,4.80
2017-06-04T19:04:30.644Z,4.82
2017-06-04T19:06:57.321Z,4.97
2017-06-04T19:09:23.988Z,5.43
2017-06-04T19:11:50.681Z,5.80
2017-06-04T19:14:17.352Z,6.05
2017-06-04T19:16:44.049Z,5.47
2017-06-04T19:19:10.722Z,6.00
2017-06-04T19:21:37.384Z,5.65
2017-06-04T19:24:04.109Z,5.68
2017-06-04T19:26:31.003Z,5.97
2017-06-04T19:28:57.689Z,5.43
2017-06-04T19:31:24.359Z,5.70
2017-06-04T19:33:51.022Z,5.05
2017-06-04T19:36:17.709Z,5.25
2017-06-04T19:38:44.379Z,4.65
2017-06-04T19:41:11.079Z,4.85
2017-06-04T19:43:37.748Z,4.65
2017-06-04T19:46:04.414Z,4.40
2017-06-04T19:48:31.077Z,5.00
2017-06-04T19:50:57.749Z,5.35
2017-06-04T19:53:24.444Z,4.82
2017-06-04T19:55:51.112Z,4.90
2017-06-04T19:58:17.831Z,4.90
2017-06-04T20:00:44.506Z,5.30
2017-06-04T20:03:11.180Z,5.20
2017-06-04T20:05:37.845Z,5.12
2017-06-04T20:08:04.517Z,5.18
2017-06-04T20:10:31.188Z,5.68
2017-06-04T20:12:57.860Z,7.05
2017-06-04T20:15:24.577Z,5.68
2017-06-04T20:17:51.249Z,6.50
2017-06-04T20:20:17.916Z,6.30
2017-06-04T20:22:44.579Z,5.62
2017-06-04T20:25:11.251Z,6.32
2017-06-04T20:27:37.913Z,6.10
2017-06-04T20:30:04.584Z,6.50
2017-06-04T20:32:31.252Z,6.47
2017-06-04T20:34:57.925Z,6.53
2017-06-04T20:37:24.652Z,6.47
2017-06-04T20:39:51.320Z,6.53
2017-06-04T20:42:17.987Z,6.82
2017-06-04T20:44:44.653Z,7.00
2017-06-04T20:47:11.322Z,7.05
2017-06-04T20:49:37.992Z,7.18
2017-06-04T20:52:04.659Z,7.93
2017-06-04T20:54:31.340Z,7.25
2017-06-04T20:56:58.008Z,7.18
2017-06-04T20:59:24.729Z,6.80
2017-06-04T21:01:51.388Z,7.40
2017-06-04T21:04:18.048Z,7.37
2017-06-04T21:06:44.724Z,7.70
2017-06-04T21:09:11.396Z,8.80
2017-06-04T21:11:38.088Z,8.13
2017-06-04T21:14:04.764Z,9.50
2017-06-04T21:16:31.432Z,8.63
2017-06-04T21:18:58.107Z,9.05
2017-06-04T21:21:24.828Z,8.77
2017-06-04T21:23:51.493Z,8.82
2017-06-04T21:26:18.160Z,9.07
2017-06-04T21:28:44.826Z,8.82
2017-06-04T21:31:11.502Z,9.43
2017-06-04T21:33:38.168Z,8.88
2017-06-04T21:36:04.838Z,8.43
2017-06-04T21:38:31.503Z,8.98
2017-06-04T21:40:58.171Z,8.55
2017-06-04T21:43:24.835Z,8.43
2017-06-04T21:45:51.508Z,9.35
2017-06-04T21:48:18.223Z,8.73
2017-06-04T21:50:44.884Z,8.20
2017-06-04T21:53:11.544Z,8.70
2017-06-04T21:55:38.216Z,9.65
2017-06-04T21:58:04.881Z,8.85
2017-06-04T22:00:31.552Z,8.98
2017-06-04T22:02:58.224Z,8.93
2017-06-04T22:05:24.900Z,10.18
2017-06-04T22:07:51.581Z,9.00
2017-06-04T22:10:18.276Z,9.00
2017-06-04T22:12:44.944Z,8.75
2017-06-04T22:15:11.633Z,9.15
2017-06-04T22:17:38.334Z,8.55
2017-06-04T22:20:05.012Z,9.20
2017-06-04T22:22:31.708Z,9.73
2017-06-04T22:24:58.375Z,9.90
2017-06-04T22:27:25.084Z,10.05
2017-06-04T22:29:51.756Z,9.32
2017-06-04T22:32:18.484Z,9.32
2017-06-04T22:34:45.164Z,10.07
2017-06-04T22:37:11.836Z,8.93
2017-06-04T22:39:38.504Z,10.18
2017-06-04T22:42:05.169Z,9.00
2017-06-04T22:44:31.869Z,9.57
2017-06-04T22:46:58.553Z,10.00
2017-06-04T22:49:25.243Z,8.43
2017-06-04T22:51:51.912Z,9.10
2017-06-04T22:54:18.641Z,9.50
2017-06-04T22:56:45.304Z,9.00
2017-06-04T22:59:11.998Z,10.50
2017-06-04T23:01:38.676Z,9.90
2017-06-04T23:04:05.348Z,10.45
2017-06-04T23:06:32.024Z,10.02
2017-06-04T23:08:58.692Z,9.30
2017-06-04T23:11:25.387Z,10.52
2017-06-04T23:13:52.060Z,10.35
2017-06-04T23:16:18.764Z,10.45
2017-06-04T23:18:45.443Z,10.15
2017-06-04T23:21:12.152Z,10.10
2017-06-04T23:23:38.825Z,10.75
2017-06-04T23:26:05.499Z,10.13
2017-06-04T23:28:32.175Z,11.15
2017-06-04T23:30:58.843Z,11.07
2017-06-04T23:33:25.521Z,11.70
2017-06-04T23:35:52.197Z,11.20
2017-06-04T23:38:18.892Z,12.07
2017-06-04T23:40:45.566Z,13.02
2017-06-04T23:43:12.276Z,13.15
2017-06-04T23:45:38.950Z,12.65
2017-06-04T23:48:05.620Z,13.05
2017-06-04T23:50:32.295Z,12.45
2017-06-04T23:52:58.973Z,12.48
2017-06-04T23:55:25.649Z,12.95
2017-06-04T23:57:52.321Z,14.55
